Saint Martins, Missouri
Current Conditions -  °F | °C
As of 12:53 AM on Sunday 23 Nov 2014 (Local Time) from KJEF Reporting Station
Clear Clear  
Wind Chill: 51°   Ceiling: Unl
Heat Index: 51°   Visibility: 10mi
Dew Point: 48°   Wind: 7mph
Humidity: 89%   Direction: 110°ESE
Pressure: 29.76"   Gusts: NA
Location:  38.5621°N, 92.2945°W
Report Text: KJEF 230653Z AUTO 11006KT 10SM CLR 11/09 A2976 RMK AO2 SLP066 T01060089
Loading
Personal Weather Stations






























Interactive Weather Map New forecast layout! Learn more

10-Day Weather Forecast

Advertisements
Track Severe Weather on mobile